createdAt,value
2023-02-04T00:01:46.826Z,101572.06
2023-02-04T00:04:13.951Z,101575.22
2023-02-04T00:06:40.665Z,101578.16
2023-02-04T00:09:07.164Z,101577.38
2023-02-04T00:11:33.697Z,101589.16
2023-02-04T00:14:00.327Z,101586.91
2023-02-04T00:16:26.880Z,101579.69
2023-02-04T00:18:53.445Z,101582.72
2023-02-04T00:21:20.029Z,101576.66
2023-02-04T00:23:46.491Z,101578.78
2023-02-04T00:26:13.088Z,101581.06
2023-02-04T00:28:40.628Z,101588.56
2023-02-04T00:31:07.236Z,101585.78
2023-02-04T00:33:33.734Z,101578.06
2023-02-04T00:36:00.292Z,101576.50
2023-02-04T00:38:26.814Z,101584.38
2023-02-04T00:40:53.880Z,101581.72
2023-02-04T00:43:20.342Z,101578.66
2023-02-04T00:45:46.960Z,101577.78
2023-02-04T00:48:13.480Z,101578.03
2023-02-04T00:50:40.065Z,101568.91
2023-02-04T00:53:07.346Z,101579.03
2023-02-04T00:55:33.913Z,101573.09
2023-02-04T00:58:00.497Z,101577.16
2023-02-04T01:00:27.053Z,101583.59
2023-02-04T01:02:54.203Z,101588.78
2023-02-04T01:05:20.778Z,101579.31
2023-02-04T01:07:47.262Z,101578.28
2023-02-04T01:10:15.417Z,101574.84
2023-02-04T01:12:42.067Z,101585.63
2023-02-04T01:15:09.277Z,101584.97
2023-02-04T01:17:35.805Z,101583.72
2023-02-04T01:20:02.286Z,101589.28
2023-02-04T01:22:28.816Z,101584.22
2023-02-04T01:24:55.468Z,101589.63
2023-02-04T01:27:21.946Z,101578.59
2023-02-04T01:29:48.459Z,101580.75
2023-02-04T01:32:15.032Z,101569.38
2023-02-04T01:34:41.559Z,101574.44
2023-02-04T01:37:08.063Z,101574.94
2023-02-04T01:39:34.668Z,101570.25
2023-02-04T01:42:01.329Z,101571.00
2023-02-04T01:44:29.234Z,101568.09
2023-02-04T01:46:56.157Z,101562.22
2023-02-04T01:49:23.398Z,101564.75
2023-02-04T01:51:50.154Z,101565.91
2023-02-04T01:54:17.979Z,101565.16
2023-02-04T01:56:47.266Z,101559.50
2023-02-04T01:59:16.362Z,101553.25
2023-02-04T02:01:46.079Z,101550.72
2023-02-04T02:04:34.142Z,101538.72
2023-02-04T02:07:03.918Z,101541.72
2023-02-04T02:09:33.345Z,101530.84
2023-02-04T02:12:02.967Z,101535.66
2023-02-04T02:14:29.616Z,101538.09
2023-02-04T02:16:56.220Z,101532.19
2023-02-04T02:19:32.366Z,101530.22
2023-02-04T02:22:31.007Z,101525.16
2023-02-04T02:24:57.744Z,101534.81
2023-02-04T02:27:24.730Z,101523.31
2023-02-04T02:29:51.636Z,101526.81
2023-02-04T02:32:18.471Z,101529.63
2023-02-04T02:34:46.825Z,101524.78
2023-02-04T02:37:14.046Z,101521.44
2023-02-04T02:39:44.538Z,101518.78
2023-02-04T02:42:16.263Z,101512.94
2023-02-04T02:44:44.866Z,101507.16
2023-02-04T02:47:15.363Z,101510.59
2023-02-04T02:49:42.869Z,101509.16
2023-02-04T02:52:13.377Z,101503.84
2023-02-04T02:54:40.779Z,101509.28
2023-02-04T02:57:16.388Z,101497.88
2023-02-04T02:59:42.982Z,101488.25
2023-02-04T03:02:13.865Z,101485.69
2023-02-04T03:04:44.049Z,101464.38
2023-02-04T03:07:11.948Z,101475.25
2023-02-04T03:09:38.602Z,101474.09
2023-02-04T03:12:06.302Z,101475.72
2023-02-04T03:14:33.624Z,101476.72
2023-02-04T03:17:01.421Z,101466.84
2023-02-04T03:19:28.463Z,101468.63
2023-02-04T03:21:56.596Z,101469.78
2023-02-04T03:24:24.022Z,101473.41
2023-02-04T03:26:50.709Z,101472.94
2023-02-04T03:29:17.405Z,101478.13
2023-02-04T03:31:44.008Z,101468.56
2023-02-04T03:34:10.654Z,101461.97
2023-02-04T03:36:37.738Z,101467.41
2023-02-04T03:39:04.627Z,101460.84
2023-02-04T03:41:31.203Z,101466.69
2023-02-04T03:43:57.703Z,101466.81
2023-02-04T03:46:25.888Z,101475.16
2023-02-04T03:48:52.478Z,101463.72
2023-02-04T03:51:18.971Z,101463.31
2023-02-04T03:53:45.441Z,101466.44
2023-02-04T03:56:11.970Z,101469.91
2023-02-04T03:58:38.597Z,101474.75
2023-02-04T04:01:05.233Z,101470.81
2023-02-04T04:03:31.754Z,101472.13
2023-02-04T04:05:58.308Z,101467.19
2023-02-04T04:08:25.645Z,101463.22
2023-02-04T04:10:52.150Z,101458.28
2023-02-04T04:13:18.646Z,101457.69
2023-02-04T04:15:45.253Z,101453.59
2023-02-04T04:18:11.776Z,101454.22
2023-02-04T04:20:38.349Z,101465.09
2023-02-04T04:23:05.144Z,101457.78
2023-02-04T04:25:31.704Z,101458.09
2023-02-04T04:27:58.263Z,101457.03
2023-02-04T04:30:24.905Z,101470.28
2023-02-04T04:32:51.480Z,101476.63
2023-02-04T04:35:18.054Z,101475.72
2023-02-04T04:37:44.543Z,101474.38
2023-02-04T04:40:12.520Z,101478.28
2023-02-04T04:42:39.067Z,101473.72
2023-02-04T04:45:08.908Z,101470.63
2023-02-04T04:47:35.839Z,101477.59
2023-02-04T04:50:02.487Z,101478.47
2023-02-04T04:52:29.037Z,101471.59
2023-02-04T04:54:55.597Z,101469.59
2023-02-04T04:57:22.267Z,101461.63
2023-02-04T04:59:48.804Z,101448.41
2023-02-04T05:02:15.294Z,101446.66
2023-02-04T05:04:41.854Z,101437.59
2023-02-04T05:07:08.557Z,101432.34
2023-02-04T05:09:35.017Z,101423.94
2023-02-04T05:12:01.545Z,101415.75
2023-02-04T05:14:28.223Z,101418.81
2023-02-04T05:16:54.680Z,101420.81
2023-02-04T05:19:21.187Z,101417.66
2023-02-04T05:21:47.701Z,101420.88
2023-02-04T05:24:14.319Z,101418.41
2023-02-04T05:26:40.811Z,101423.13
2023-02-04T05:29:07.976Z,101420.38
2023-02-04T05:31:35.431Z,101410.84
2023-02-04T05:34:02.005Z,101411.75
2023-02-04T05:36:28.665Z,101403.22
2023-02-04T05:38:55.103Z,101400.75
2023-02-04T05:41:21.657Z,101394.72
2023-02-04T05:43:48.169Z,101404.44
2023-02-04T05:46:14.668Z,101407.84
2023-02-04T05:48:41.227Z,101407.84
2023-02-04T05:51:07.770Z,101410.16
2023-02-04T05:53:34.325Z,101423.41
2023-02-04T05:56:00.902Z,101414.00
2023-02-04T05:58:33.304Z,101402.59
2023-02-04T06:01:01.593Z,101396.59
2023-02-04T06:03:29.618Z,101389.16
2023-02-04T06:05:57.037Z,101394.47
2023-02-04T06:08:23.738Z,101397.13
2023-02-04T06:10:50.346Z,101402.88
2023-02-04T06:13:17.080Z,101393.50
2023-02-04T06:15:43.560Z,101384.28
2023-02-04T06:18:10.638Z,101387.44
2023-02-04T06:20:37.426Z,101384.69
2023-02-04T06:23:03.921Z,101382.16
2023-02-04T06:25:30.487Z,101383.75
2023-02-04T06:27:57.063Z,101381.25
2023-02-04T06:30:23.561Z,101375.44
2023-02-04T06:32:50.080Z,101381.91
2023-02-04T06:35:16.741Z,101383.53
2023-02-04T06:37:44.522Z,101370.44
2023-02-04T06:40:12.207Z,101383.06
2023-02-04T06:42:38.796Z,101374.34
2023-02-04T06:45:05.896Z,101378.16
2023-02-04T06:47:32.468Z,101376.84
2023-02-04T06:49:58.921Z,101375.09
2023-02-04T06:52:25.482Z,101378.34
2023-02-04T06:54:51.994Z,101372.06
2023-02-04T06:57:18.521Z,101365.84
2023-02-04T06:59:47.042Z,101371.47
2023-02-04T07:02:14.227Z,101362.31
2023-02-04T07:04:43.767Z,101368.44
2023-02-04T07:07:11.652Z,101364.56
2023-02-04T07:09:40.608Z,101350.09
2023-02-04T07:12:07.688Z,101356.25
2023-02-04T07:14:34.434Z,101342.13
2023-02-04T07:17:01.150Z,101344.91
2023-02-04T07:19:27.692Z,101339.09
2023-02-04T07:21:56.842Z,101347.22
2023-02-04T07:24:24.090Z,101341.28
2023-02-04T07:26:51.134Z,101342.50
2023-02-04T07:29:25.070Z,101348.09
2023-02-04T07:31:52.922Z,101348.81
2023-02-04T07:34:20.236Z,101342.25
2023-02-04T07:36:47.013Z,101342.84
2023-02-04T07:39:13.606Z,101342.00
2023-02-04T07:41:41.045Z,101339.91
2023-02-04T07:44:07.769Z,101340.03
2023-02-04T07:46:34.323Z,101348.34
2023-02-04T07:49:01.234Z,101348.66
2023-02-04T07:51:28.083Z,101353.81
2023-02-04T07:53:55.693Z,101360.03
2023-02-04T07:56:22.161Z,101357.50
2023-02-04T07:58:48.692Z,101362.66
2023-02-04T08:01:15.690Z,101373.41
2023-02-04T08:03:42.760Z,101375.88
2023-02-04T08:06:09.698Z,101372.97
2023-02-04T08:08:36.201Z,101377.88
2023-02-04T08:11:02.848Z,101371.50
2023-02-04T08:13:29.398Z,101388.00
2023-02-04T08:15:55.996Z,101381.78
2023-02-04T08:18:25.051Z,101393.59
2023-02-04T08:20:51.837Z,101396.25
2023-02-04T08:23:18.396Z,101401.56
2023-02-04T08:25:45.603Z,101415.94
2023-02-04T08:28:12.320Z,101412.94
2023-02-04T08:30:38.943Z,101419.59
2023-02-04T08:33:05.540Z,101437.75
2023-02-04T08:35:32.016Z,101439.63
2023-02-04T08:37:58.495Z,101437.31
2023-02-04T08:40:24.994Z,101439.91
2023-02-04T08:42:51.591Z,101440.75
2023-02-04T08:45:18.719Z,101444.22
2023-02-04T08:47:45.385Z,101449.50
2023-02-04T08:50:12.273Z,101457.81
2023-02-04T08:52:38.853Z,101458.97
2023-02-04T08:55:05.897Z,101468.44
2023-02-04T08:57:34.008Z,101476.69
2023-02-04T09:00:01.016Z,101480.34
2023-02-04T09:02:27.566Z,101488.00
2023-02-04T09:04:54.137Z,101495.97
2023-02-04T09:07:21.712Z,101500.41
2023-02-04T09:09:48.841Z,101497.41
2023-02-04T09:12:15.312Z,101505.34
2023-02-04T09:14:41.804Z,101502.59
2023-02-04T09:17:08.375Z,101511.59
2023-02-04T09:19:34.938Z,101518.25
2023-02-04T09:22:01.495Z,101520.63
2023-02-04T09:24:28.164Z,101519.75
2023-02-04T09:26:54.702Z,101526.72
2023-02-04T09:29:21.178Z,101529.16
2023-02-04T09:31:48.050Z,101528.56
2023-02-04T09:34:14.657Z,101542.38
2023-02-04T09:36:41.240Z,101552.91
2023-02-04T09:39:10.107Z,101553.53
2023-02-04T09:41:40.061Z,101564.31
2023-02-04T09:44:15.169Z,101571.16
2023-02-04T09:46:47.866Z,101572.06
2023-02-04T09:49:14.471Z,101568.03
2023-02-04T09:51:43.959Z,101577.91
2023-02-04T09:54:15.732Z,101588.91
2023-02-04T09:56:42.407Z,101588.53
2023-02-04T09:59:23.599Z,101578.03
2023-02-04T10:02:00.596Z,101584.88
2023-02-04T10:04:27.681Z,101591.72
2023-02-04T10:06:58.644Z,101589.81
2023-02-04T10:09:25.271Z,101586.91
2023-02-04T10:11:52.547Z,101586.66
2023-02-04T10:14:22.721Z,101594.78
2023-02-04T10:16:59.492Z,101607.44
2023-02-04T10:19:28.138Z,101604.25
2023-02-04T10:21:54.911Z,101611.97
2023-02-04T10:24:30.517Z,101621.63
2023-02-04T10:27:08.869Z,101627.47
2023-02-04T10:29:35.587Z,101633.69
2023-02-04T10:32:02.217Z,101651.44
2023-02-04T10:34:39.877Z,101660.81
2023-02-04T10:37:20.192Z,101663.31
2023-02-04T10:39:46.976Z,101675.38
2023-02-04T10:42:24.922Z,101675.66
2023-02-04T10:44:51.871Z,101675.53
2023-02-04T10:47:20.272Z,101670.44
2023-02-04T10:49:54.562Z,101667.22
2023-02-04T10:52:24.752Z,101670.66
2023-02-04T10:54:51.352Z,101679.63
2023-02-04T10:57:26.195Z,101678.59
2023-02-04T11:00:01.473Z,101687.09
2023-02-04T11:02:46.148Z,101689.94
2023-02-04T11:05:15.806Z,101683.44
2023-02-04T11:07:43.117Z,101684.81
2023-02-04T11:10:15.890Z,101678.13
2023-02-04T11:13:06.537Z,101680.63
2023-02-04T11:16:15.455Z,101678.94
2023-02-04T11:18:49.841Z,101690.41
2023-02-04T11:21:34.798Z,101693.59
2023-02-04T11:24:16.306Z,101697.91
2023-02-04T11:26:44.913Z,101695.78
2023-02-04T11:29:41.119Z,101700.59
2023-02-04T11:32:28.047Z,101701.84
2023-02-04T11:34:57.238Z,101700.59
2023-02-04T11:37:45.138Z,101696.34
2023-02-04T11:40:32.620Z,101695.66
2023-02-04T11:43:09.605Z,101692.75
2023-02-04T11:45:37.715Z,101685.81
2023-02-04T11:48:19.068Z,101679.97
2023-02-04T11:50:57.261Z,101670.88
2023-02-04T11:53:34.376Z,101680.44
2023-02-04T11:56:00.985Z,101676.22
2023-02-04T11:58:30.863Z,101660.34
2023-02-04T12:00:58.483Z,101667.28
2023-02-04T12:03:35.927Z,101656.78
2023-02-04T12:06:03.601Z,101649.53
2023-02-04T12:08:33.410Z,101646.00
2023-02-04T12:11:27.464Z,101646.69
2023-02-04T12:13:56.703Z,101646.50
2023-02-04T12:16:24.184Z,101647.38
2023-02-04T12:18:51.369Z,101654.78
2023-02-04T12:21:19.345Z,101648.47
2023-02-04T12:23:45.898Z,101645.06
2023-02-04T12:26:13.059Z,101643.84
2023-02-04T12:28:39.611Z,101642.72
2023-02-04T12:31:06.240Z,101637.63
2023-02-04T12:33:32.778Z,101636.97
2023-02-04T12:35:59.795Z,101630.84
2023-02-04T12:38:28.169Z,101626.53
2023-02-04T12:40:55.052Z,101620.97
2023-02-04T12:43:21.684Z,101616.09
2023-02-04T12:45:49.857Z,101613.41
2023-02-04T12:48:16.689Z,101607.75
2023-02-04T12:50:43.195Z,101603.44
2023-02-04T12:53:09.834Z,101600.13
2023-02-04T12:55:36.740Z,101599.28
2023-02-04T12:58:03.656Z,101590.63
2023-02-04T13:00:30.898Z,101588.66
2023-02-04T13:02:59.211Z,101585.69
2023-02-04T13:05:26.743Z,101591.72
2023-02-04T13:07:53.398Z,101581.03
2023-02-04T13:10:21.886Z,101578.66
2023-02-04T13:12:48.630Z,101576.94
2023-02-04T13:15:15.183Z,101573.69
2023-02-04T13:17:41.860Z,101566.38
2023-02-04T13:20:09.192Z,101560.53
2023-02-04T13:22:35.772Z,101560.38
2023-02-04T13:25:04.190Z,101557.03
2023-02-04T13:27:32.374Z,101563.50
2023-02-04T13:29:59.069Z,101553.81
2023-02-04T13:32:25.871Z,101554.59
2023-02-04T13:34:52.380Z,101554.94
2023-02-04T13:37:19.003Z,101559.44
2023-02-04T13:39:45.522Z,101557.50
2023-02-04T13:42:11.996Z,101559.78
2023-02-04T13:44:38.649Z,101562.13
2023-02-04T13:47:05.247Z,101566.00
2023-02-04T13:49:31.767Z,101562.41
2023-02-04T13:51:58.569Z,101562.81
2023-02-04T13:54:25.628Z,101560.53
2023-02-04T13:56:52.168Z,101561.25
2023-02-04T13:59:20.901Z,101552.91
2023-02-04T14:01:47.571Z,101561.03
2023-02-04T14:04:14.312Z,101573.72
2023-02-04T14:06:43.696Z,101571.97
2023-02-04T14:09:12.329Z,101564.97
2023-02-04T14:11:39.246Z,101564.78
2023-02-04T14:14:06.406Z,101564.69
2023-02-04T14:16:33.082Z,101564.41
2023-02-04T14:19:00.517Z,101553.47
2023-02-04T14:21:27.226Z,101562.22
2023-02-04T14:23:53.782Z,101556.22
2023-02-04T14:26:20.632Z,101557.59
2023-02-04T14:28:47.152Z,101568.31
2023-02-04T14:31:13.948Z,101568.03
2023-02-04T14:33:40.400Z,101567.72
2023-02-04T14:36:07.220Z,101568.78
2023-02-04T14:38:34.328Z,101573.13
2023-02-04T14:41:00.915Z,101571.66
2023-02-04T14:43:27.502Z,101566.84
2023-02-04T14:45:54.026Z,101566.63
2023-02-04T14:48:20.674Z,101561.50
2023-02-04T14:50:47.235Z,101569.97
2023-02-04T14:53:13.766Z,101573.59
2023-02-04T14:55:40.259Z,101574.03
2023-02-04T14:58:07.646Z,101581.78
2023-02-04T15:00:34.671Z,101579.78
2023-02-04T15:03:01.355Z,101584.50
2023-02-04T15:05:27.937Z,101582.03
2023-02-04T15:07:54.511Z,101584.31
2023-02-04T15:10:22.688Z,101588.72
2023-02-04T15:12:49.391Z,101589.91
2023-02-04T15:15:16.093Z,101581.63
2023-02-04T15:17:42.664Z,101589.84
2023-02-04T15:20:09.745Z,101599.16
2023-02-04T15:22:36.249Z,101597.09
2023-02-04T15:25:02.940Z,101606.81
2023-02-04T15:27:29.698Z,101608.13
2023-02-04T15:29:56.213Z,101600.72
2023-02-04T15:32:22.728Z,101606.94
2023-02-04T15:34:49.271Z,101606.53
2023-02-04T15:37:16.106Z,101603.69
2023-02-04T15:39:43.757Z,101600.94
2023-02-04T15:42:10.971Z,101601.72
2023-02-04T15:44:37.946Z,101604.41
2023-02-04T15:47:06.381Z,101608.22
2023-02-04T15:49:33.927Z,101608.69
2023-02-04T15:52:00.660Z,101611.34
2023-02-04T15:54:27.134Z,101622.28
2023-02-04T15:56:53.711Z,101627.59
2023-02-04T15:59:20.281Z,101622.59
2023-02-04T16:01:46.844Z,101627.28
2023-02-04T16:04:13.414Z,101625.91
2023-02-04T16:06:44.972Z,101632.81
2023-02-04T16:09:16.833Z,101627.78
2023-02-04T16:11:43.361Z,101634.56
2023-02-04T16:14:10.492Z,101629.16
2023-02-04T16:16:37.060Z,101636.72
2023-02-04T16:19:03.599Z,101648.03
2023-02-04T16:21:30.086Z,101656.56
2023-02-04T16:23:56.686Z,101653.44
2023-02-04T16:26:23.201Z,101654.41
2023-02-04T16:28:49.797Z,101657.75
2023-02-04T16:31:16.443Z,101659.50
2023-02-04T16:33:43.073Z,101663.34
2023-02-04T16:36:12.886Z,101674.47
2023-02-04T16:38:40.703Z,101675.94
2023-02-04T16:41:07.622Z,101676.63
2023-02-04T16:43:34.314Z,101678.19
2023-02-04T16:46:00.869Z,101676.81
2023-02-04T16:48:28.734Z,101669.63
2023-02-04T16:50:55.574Z,101678.28
2023-02-04T16:53:22.278Z,101674.44
2023-02-04T16:55:49.199Z,101679.94
2023-02-04T16:58:16.442Z,101678.94
2023-02-04T17:00:44.248Z,101677.84
2023-02-04T17:03:14.977Z,101688.66
2023-02-04T17:05:42.351Z,101683.22
2023-02-04T17:08:09.067Z,101689.81
2023-02-04T17:10:54.463Z,101695.78
2023-02-04T17:13:21.010Z,101696.59
2023-02-04T17:15:47.655Z,101704.59
2023-02-04T17:18:14.252Z,101709.63
2023-02-04T17:20:40.840Z,101711.78
2023-02-04T17:23:07.307Z,101713.22
2023-02-04T17:25:34.147Z,101711.28
2023-02-04T17:28:00.838Z,101714.31
2023-02-04T17:30:27.723Z,101706.34
2023-02-04T17:32:54.238Z,101715.44
2023-02-04T17:35:20.736Z,101716.34
2023-02-04T17:37:47.243Z,101722.81
2023-02-04T17:40:13.875Z,101718.34
2023-02-04T17:42:41.218Z,101720.16
2023-02-04T17:45:10.494Z,101723.47
2023-02-04T17:47:40.757Z,101721.50
2023-02-04T17:50:10.039Z,101729.41
2023-02-04T17:52:38.318Z,101732.16
2023-02-04T17:55:22.387Z,101737.25
2023-02-04T17:57:49.429Z,101740.03
2023-02-04T18:00:21.171Z,101739.03
2023-02-04T18:02:50.261Z,101740.16
2023-02-04T18:05:20.405Z,101738.41
2023-02-04T18:07:53.607Z,101741.38
2023-02-04T18:10:41.425Z,101740.63
2023-02-04T18:13:19.933Z,101740.38
2023-02-04T18:15:50.911Z,101739.53
2023-02-04T18:18:26.544Z,101741.53
2023-02-04T18:21:21.552Z,101742.94
2023-02-04T18:24:09.782Z,101753.50
2023-02-04T18:26:45.911Z,101753.84
2023-02-04T18:29:31.253Z,101758.59
2023-02-04T18:32:01.959Z,101763.47
2023-02-04T18:34:40.303Z,101761.41
2023-02-04T18:37:34.010Z,101760.50
2023-02-04T18:40:19.964Z,101770.81
2023-02-04T18:42:47.398Z,101760.72
2023-02-04T18:45:27.423Z,101766.47
2023-02-04T18:47:59.591Z,101755.97
2023-02-04T18:50:29.569Z,101750.84
2023-02-04T18:53:01.334Z,101766.84
2023-02-04T18:55:30.801Z,101768.06
2023-02-04T18:58:18.945Z,101764.72
2023-02-04T19:00:51.960Z,101768.59
2023-02-04T19:03:23.856Z,101766.47
2023-02-04T19:05:51.310Z,101782.22
2023-02-04T19:08:23.580Z,101765.03
2023-02-04T19:10:51.793Z,101762.69
2023-02-04T19:13:25.687Z,101772.53
2023-02-04T19:16:17.610Z,101770.63
2023-02-04T19:18:45.060Z,101772.31
2023-02-04T19:21:22.612Z,101766.66
2023-02-04T19:23:51.015Z,101764.66
2023-02-04T19:26:42.543Z,101766.84
2023-02-04T19:29:30.204Z,101761.19
2023-02-04T19:32:07.558Z,101759.66
2023-02-04T19:34:38.200Z,101760.50
2023-02-04T19:37:40.824Z,101763.75
2023-02-04T19:40:34.570Z,101776.88
2023-02-04T19:43:21.185Z,101765.81
2023-02-04T19:45:50.966Z,101772.47
2023-02-04T19:48:34.218Z,101774.22
2023-02-04T19:51:07.493Z,101785.06
2023-02-04T19:53:34.027Z,101778.88
2023-02-04T19:56:00.518Z,101787.81
2023-02-04T19:58:42.274Z,101789.34
2023-02-04T20:01:18.022Z,101789.97
2023-02-04T20:03:49.336Z,101789.13
2023-02-04T20:06:35.501Z,101787.44
2023-02-04T20:09:15.669Z,101794.31
2023-02-04T20:12:11.553Z,101786.31
2023-02-04T20:14:55.960Z,101776.13
2023-02-04T20:17:40.164Z,101777.25
2023-02-04T20:20:26.716Z,101773.69
2023-02-04T20:22:57.791Z,101781.91
2023-02-04T20:25:50.726Z,101784.31
2023-02-04T20:28:34.611Z,101782.31
2023-02-04T20:31:02.313Z,101778.00
2023-02-04T20:33:48.959Z,101786.16
2023-02-04T20:36:15.365Z,101793.78
2023-02-04T20:38:41.865Z,101798.66
2023-02-04T20:41:20.780Z,101796.72
2023-02-04T20:43:51.112Z,101795.88
2023-02-04T20:46:26.698Z,101801.19
2023-02-04T20:48:53.203Z,101796.09
2023-02-04T20:51:23.380Z,101802.19
2023-02-04T20:53:59.121Z,101806.38
2023-02-04T20:56:32.366Z,101814.69
2023-02-04T20:59:26.210Z,101805.25
2023-02-04T21:01:53.544Z,101802.59
2023-02-04T21:04:32.371Z,101813.44
2023-02-04T21:07:02.418Z,101812.44
2023-02-04T21:09:31.602Z,101814.31
2023-02-04T21:11:59.189Z,101815.63
2023-02-04T21:14:27.727Z,101814.19
2023-02-04T21:16:54.870Z,101814.31
2023-02-04T21:19:23.427Z,101813.97
2023-02-04T21:21:50.392Z,101809.09
2023-02-04T21:24:17.647Z,101816.50
2023-02-04T21:26:44.558Z,101811.06
2023-02-04T21:29:11.417Z,101804.75
2023-02-04T21:31:38.333Z,101813.63
2023-02-04T21:34:05.670Z,101812.25
2023-02-04T21:36:32.181Z,101813.91
2023-02-04T21:38:59.261Z,101820.75
2023-02-04T21:41:26.056Z,101833.22
2023-02-04T21:43:52.758Z,101828.16
2023-02-04T21:46:20.115Z,101831.19
2023-02-04T21:48:46.648Z,101831.75
2023-02-04T21:51:14.336Z,101831.63
2023-02-04T21:53:41.437Z,101825.53
2023-02-04T21:56:09.087Z,101827.28
2023-02-04T21:58:36.202Z,101826.31
2023-02-04T22:01:02.746Z,101834.69
2023-02-04T22:03:29.825Z,101824.91
2023-02-04T22:05:56.451Z,101827.44
2023-02-04T22:08:23.122Z,101815.25
2023-02-04T22:10:49.697Z,101818.03
2023-02-04T22:13:16.184Z,101819.44
2023-02-04T22:15:42.729Z,101815.75
2023-02-04T22:18:09.398Z,101810.53
2023-02-04T22:20:37.094Z,101817.44
2023-02-04T22:23:04.484Z,101808.13
2023-02-04T22:25:31.146Z,101817.16
2023-02-04T22:27:57.703Z,101819.19
2023-02-04T22:30:24.233Z,101818.94
2023-02-04T22:32:50.820Z,101816.81
2023-02-04T22:35:17.751Z,101811.47
2023-02-04T22:37:44.303Z,101813.13
2023-02-04T22:40:13.066Z,101811.25
2023-02-04T22:42:39.780Z,101810.09
2023-02-04T22:45:08.007Z,101809.97
2023-02-04T22:47:34.501Z,101807.59
2023-02-04T22:50:01.234Z,101808.59
2023-02-04T22:52:27.880Z,101803.38
2023-02-04T22:54:54.401Z,101807.59
2023-02-04T22:57:20.896Z,101818.66
2023-02-04T22:59:47.401Z,101804.69
2023-02-04T23:02:14.346Z,101809.78
2023-02-04T23:04:43.920Z,101806.88
2023-02-04T23:07:11.293Z,101800.88
2023-02-04T23:09:37.863Z,101793.13
2023-02-04T23:12:13.934Z,101795.19
2023-02-04T23:14:45.667Z,101785.53
2023-02-04T23:17:12.976Z,101790.72
2023-02-04T23:19:39.722Z,101791.63
2023-02-04T23:22:07.875Z,101792.53
2023-02-04T23:24:35.136Z,101792.00
2023-02-04T23:27:03.044Z,101790.25
2023-02-04T23:29:32.282Z,101788.06
2023-02-04T23:31:59.760Z,101785.03
2023-02-04T23:34:26.415Z,101774.50
2023-02-04T23:36:52.947Z,101769.56
2023-02-04T23:39:20.742Z,101764.47
2023-02-04T23:41:48.361Z,101766.22
2023-02-04T23:44:15.324Z,101764.47
2023-02-04T23:46:41.998Z,101769.56
2023-02-04T23:49:08.693Z,101764.47
2023-02-04T23:51:36.001Z,101767.00
2023-02-04T23:54:02.786Z,101762.94
2023-02-04T23:56:29.764Z,101757.34
2023-02-04T23:58:56.612Z,101754.44
